createdAt,value
2019-02-26T00:00:36.777Z,99320.61
2019-02-26T00:03:05.282Z,99320.61
2019-02-26T00:05:33.779Z,99313.28
2019-02-26T00:08:02.589Z,99313.28
2019-02-26T00:10:32.315Z,99306.80
2019-02-26T00:13:01.518Z,99286.50
2019-02-26T00:15:33.355Z,99272.27
2019-02-26T00:18:00.236Z,99287.70
2019-02-26T00:20:31.280Z,99290.00
2019-02-26T00:22:59.855Z,99290.00
2019-02-26T00:25:29.265Z,99275.70
2019-02-26T00:27:58.651Z,99270.52
2019-02-26T00:30:27.376Z,99270.52
2019-02-26T00:32:57.711Z,99251.91
2019-02-26T00:35:27.616Z,99254.47
2019-02-26T00:37:56.277Z,99254.47
2019-02-26T00:40:24.779Z,99258.23
2019-02-26T00:42:56.524Z,99258.23
2019-02-26T00:45:26.895Z,99243.95
2019-02-26T00:47:53.779Z,99242.56
2019-02-26T00:50:22.285Z,99234.34
2019-02-26T00:52:52.361Z,99234.34
2019-02-26T00:55:23.137Z,99241.51
2019-02-26T00:57:51.289Z,99235.51
2019-02-26T01:00:19.792Z,99217.94
2019-02-26T01:02:48.288Z,99217.94
2019-02-26T01:05:16.898Z,99208.02
2019-02-26T01:07:47.416Z,99189.69
2019-02-26T01:10:16.414Z,99185.20
2019-02-26T01:12:45.880Z,99185.20
2019-02-26T01:15:19.155Z,99175.52
2019-02-26T01:17:47.659Z,99163.94
2019-02-26T01:20:19.314Z,99156.41
2019-02-26T01:22:47.599Z,99145.98
2019-02-26T01:25:18.498Z,99140.86
2019-02-26T01:27:48.288Z,99140.86
2019-02-26T01:30:20.743Z,99145.73
2019-02-26T01:32:46.928Z,99136.66
2019-02-26T01:35:15.441Z,99133.53
2019-02-26T01:37:43.969Z,99122.58
2019-02-26T01:40:15.826Z,99116.55
2019-02-26T01:42:47.252Z,99116.55
2019-02-26T01:45:13.824Z,99106.00
2019-02-26T01:47:44.906Z,99104.07
2019-02-26T01:50:13.967Z,99111.59
2019-02-26T01:52:43.412Z,99107.92
2019-02-26T01:55:12.307Z,99107.92
2019-02-26T01:57:43.438Z,99105.62
2019-02-26T02:00:16.598Z,99111.72
2019-02-26T02:02:45.122Z,99103.30
2019-02-26T02:05:13.651Z,99107.98
2019-02-26T02:07:44.223Z,99107.98
2019-02-26T02:10:15.124Z,99093.19
2019-02-26T02:12:43.629Z,99078.25
2019-02-26T02:15:18.239Z,99081.64
2019-02-26T02:17:46.008Z,99079.13
2019-02-26T02:20:20.823Z,99069.74
2019-02-26T02:22:47.817Z,99069.74
2019-02-26T02:25:16.325Z,99050.60
2019-02-26T02:27:47.714Z,99052.83
2019-02-26T02:30:22.402Z,99056.70
2019-02-26T02:32:50.409Z,99047.19
2019-02-26T02:35:19.102Z,99037.56
2019-02-26T02:37:47.074Z,99032.34
2019-02-26T02:40:15.587Z,99031.80
2019-02-26T02:42:48.443Z,99032.34
2019-02-26T02:45:16.983Z,99033.06
2019-02-26T02:47:44.552Z,99041.94
2019-02-26T02:50:15.074Z,99046.08
2019-02-26T02:52:44.166Z,99039.33
2019-02-26T02:55:15.635Z,99035.56
2019-02-26T02:57:42.920Z,99036.89
2019-02-26T03:00:16.102Z,99038.44
2019-02-26T03:02:46.484Z,99038.44
2019-02-26T03:05:14.834Z,99036.00
2019-02-26T03:07:46.088Z,99041.04
2019-02-26T03:10:15.205Z,99047.45
2019-02-26T03:12:47.663Z,99052.73
2019-02-26T03:15:15.071Z,99043.58
2019-02-26T03:17:43.571Z,99050.17
2019-02-26T03:20:15.149Z,99059.16
2019-02-26T03:22:48.307Z,99052.48
2019-02-26T03:25:20.977Z,99048.19
2019-02-26T03:27:48.035Z,99040.83
2019-02-26T03:30:27.461Z,99036.90
2019-02-26T03:32:58.644Z,99022.62
2019-02-26T03:35:23.804Z,99018.78
2019-02-26T03:37:55.628Z,99016.92
2019-02-26T03:40:24.097Z,99014.75
2019-02-26T03:42:52.968Z,99016.13
2019-02-26T03:45:24.723Z,99008.70
2019-02-26T03:47:51.770Z,99012.37
2019-02-26T03:50:20.258Z,98999.53
2019-02-26T03:52:48.777Z,98998.10
2019-02-26T03:55:18.934Z,99001.23
2019-02-26T03:57:50.579Z,99010.50
2019-02-26T04:00:19.854Z,99003.41
2019-02-26T04:02:51.281Z,99001.29
2019-02-26T04:05:18.933Z,98996.53
2019-02-26T04:07:49.845Z,99002.41
2019-02-26T04:10:17.679Z,98995.25
2019-02-26T04:12:48.715Z,98984.86
2019-02-26T04:15:17.455Z,98988.88
2019-02-26T04:17:45.950Z,98983.73
2019-02-26T04:20:15.258Z,98985.75
2019-02-26T04:22:49.029Z,98986.13
2019-02-26T04:25:33.958Z,98990.52
2019-02-26T04:28:10.838Z,98991.79
2019-02-26T04:30:56.980Z,98981.46
2019-02-26T04:33:49.630Z,98979.13
2019-02-26T04:36:27.342Z,98971.23
2019-02-26T04:39:16.366Z,98972.41
2019-02-26T04:42:09.436Z,98974.99
2019-02-26T04:44:58.114Z,98986.41
2019-02-26T04:47:30.782Z,98990.95
2019-02-26T04:50:00.501Z,98995.51
2019-02-26T04:52:29.581Z,98997.98
2019-02-26T04:54:59.122Z,98975.84
2019-02-26T04:57:27.702Z,98996.98
2019-02-26T04:59:58.377Z,99004.03
2019-02-26T05:02:26.436Z,99011.03
2019-02-26T05:04:54.942Z,99009.56
2019-02-26T05:07:23.467Z,99002.07
2019-02-26T05:09:53.797Z,99006.97
2019-02-26T05:12:25.111Z,99006.75
2019-02-26T05:14:52.487Z,98989.30
2019-02-26T05:17:23.795Z,98986.41
2019-02-26T05:19:51.852Z,98973.20
2019-02-26T05:22:24.870Z,98964.23
2019-02-26T05:24:52.898Z,98960.09
2019-02-26T05:27:22.750Z,98954.63
2019-02-26T05:29:54.542Z,98957.06
2019-02-26T05:32:26.557Z,98951.56
2019-02-26T05:34:52.328Z,98949.00
2019-02-26T05:37:20.825Z,98950.73
2019-02-26T05:39:51.705Z,98945.24
2019-02-26T05:42:19.567Z,98938.75
2019-02-26T05:44:48.073Z,98936.84
2019-02-26T05:47:18.671Z,98927.68
2019-02-26T05:49:46.854Z,98937.84
2019-02-26T05:52:15.428Z,98937.84
2019-02-26T05:54:43.944Z,98935.79
2019-02-26T05:57:27.196Z,98933.66
2019-02-26T05:59:42.768Z,98927.74
2019-02-26T06:02:13.409Z,98936.30
2019-02-26T06:04:43.874Z,98924.85
2019-02-26T06:07:11.749Z,98918.02
2019-02-26T06:09:40.243Z,98918.02
2019-02-26T06:12:08.803Z,98913.08
2019-02-26T06:14:39.333Z,98905.98
2019-02-26T06:17:09.698Z,98913.16
2019-02-26T06:19:48.312Z,98920.11
2019-02-26T06:22:18.214Z,98928.66
2019-02-26T06:24:47.106Z,98924.25
2019-02-26T06:27:18.309Z,98932.71
2019-02-26T06:29:45.828Z,98934.75
2019-02-26T06:32:16.139Z,98934.08
2019-02-26T06:34:44.635Z,98935.95
2019-02-26T06:37:16.632Z,98941.63
2019-02-26T06:39:45.276Z,98940.25
2019-02-26T06:42:14.512Z,98948.90
2019-02-26T06:44:43.746Z,98946.12
2019-02-26T06:47:13.396Z,98943.87
2019-02-26T06:49:43.238Z,98951.63
2019-02-26T06:52:13.125Z,98944.05
2019-02-26T06:54:45.258Z,98937.73
2019-02-26T06:57:12.636Z,98943.83
2019-02-26T06:59:41.134Z,98938.57
2019-02-26T07:02:11.034Z,98941.13
2019-02-26T07:04:40.025Z,98933.63
2019-02-26T07:07:12.190Z,98911.64
2019-02-26T07:09:39.615Z,98911.64
2019-02-26T07:12:08.974Z,98917.05
2019-02-26T07:14:37.502Z,98919.75
2019-02-26T07:17:05.974Z,98902.12
2019-02-26T07:19:35.854Z,98900.23
2019-02-26T07:22:05.417Z,98896.17
2019-02-26T07:24:34.942Z,98883.58
2019-02-26T07:27:04.301Z,98890.06
2019-02-26T07:29:37.544Z,98890.06
2019-02-26T07:32:03.927Z,98896.20
2019-02-26T07:34:32.429Z,98894.52
2019-02-26T07:37:00.945Z,98885.58
2019-02-26T07:39:29.474Z,98883.84
2019-02-26T07:41:57.971Z,98881.51
2019-02-26T07:44:28.339Z,98874.85
2019-02-26T07:46:58.436Z,98872.55
2019-02-26T07:49:26.906Z,98870.73
2019-02-26T07:51:57.411Z,98862.42
2019-02-26T07:54:25.661Z,98857.69
2019-02-26T07:56:55.116Z,98859.94
2019-02-26T07:59:27.640Z,98863.48
2019-02-26T08:01:54.635Z,98858.27
2019-02-26T08:04:23.179Z,98855.09
2019-02-26T08:06:52.416Z,98854.59
2019-02-26T08:09:23.624Z,98855.00
2019-02-26T08:11:52.201Z,98851.49
2019-02-26T08:14:21.374Z,98853.09
2019-02-26T08:16:53.669Z,98853.58
2019-02-26T08:19:21.225Z,98845.55
2019-02-26T08:21:50.362Z,98834.81
2019-02-26T08:24:23.840Z,98830.94
2019-02-26T08:26:50.186Z,98834.03
2019-02-26T08:29:18.732Z,98830.72
2019-02-26T08:31:49.398Z,98828.76
2019-02-26T08:34:17.458Z,98832.04
2019-02-26T08:36:46.773Z,98829.05
2019-02-26T08:39:15.878Z,98831.50
2019-02-26T08:41:56.762Z,98805.61
2019-02-26T08:44:25.248Z,98817.98
2019-02-26T08:46:53.746Z,98814.73
2019-02-26T08:49:22.607Z,98801.88
2019-02-26T08:51:51.076Z,98798.11
2019-02-26T08:54:21.113Z,98792.55
2019-02-26T08:56:49.840Z,98798.11
2019-02-26T08:59:20.099Z,98794.88
2019-02-26T09:01:48.723Z,98793.95
2019-02-26T09:04:19.175Z,98792.61
2019-02-26T09:06:47.491Z,98792.36
2019-02-26T09:09:15.990Z,98792.56
2019-02-26T09:11:44.506Z,98796.42
2019-02-26T09:14:14.233Z,98776.30
2019-02-26T09:16:43.236Z,98764.86
2019-02-26T09:19:11.770Z,98757.27
2019-02-26T09:21:42.608Z,98768.92
2019-02-26T09:24:16.863Z,98754.48
2019-02-26T09:26:45.358Z,98764.69
2019-02-26T09:30:06.728Z,98751.84
2019-02-26T09:32:44.862Z,98755.58
2019-02-26T09:35:16.919Z,98724.19
2019-02-26T09:37:47.324Z,98721.43
2019-02-26T09:43:06.117Z,98705.98
2019-02-26T09:45:34.845Z,98697.10
2019-02-26T09:48:03.414Z,98705.35
2019-02-26T09:50:31.902Z,98702.85
2019-02-26T09:53:00.391Z,98689.54
2019-02-26T09:55:28.940Z,98678.91
2019-02-26T09:57:57.446Z,98676.98
2019-02-26T10:00:29.117Z,98668.59
2019-02-26T10:02:56.208Z,98667.83
2019-02-26T10:05:24.700Z,98653.00
2019-02-26T10:07:54.980Z,98643.16
2019-02-26T10:10:26.054Z,98633.57
2019-02-26T10:12:56.467Z,98635.73
2019-02-26T10:15:24.419Z,98618.01
2019-02-26T10:17:52.942Z,98613.18
2019-02-26T10:20:31.016Z,98600.40
2019-02-26T10:23:00.748Z,98590.11
2019-02-26T10:25:31.037Z,98582.55
2019-02-26T10:28:03.084Z,98558.54
2019-02-26T10:30:31.404Z,98576.14
2019-02-26T10:33:01.839Z,98583.87
2019-02-26T10:35:33.272Z,98562.10
2019-02-26T10:38:02.827Z,98571.19
2019-02-26T10:40:35.303Z,98575.37
2019-02-26T10:43:00.192Z,98570.98
2019-02-26T10:45:29.591Z,98564.79
2019-02-26T10:47:59.429Z,98553.13
2019-02-26T10:50:31.788Z,98552.81
2019-02-26T10:53:06.951Z,98554.84
2019-02-26T10:55:35.319Z,98550.16
2019-02-26T10:58:03.587Z,98540.67
2019-02-26T11:00:32.176Z,98553.04
2019-02-26T11:03:00.359Z,98535.27
2019-02-26T11:05:28.865Z,98534.25
2019-02-26T11:07:59.708Z,98524.00
2019-02-26T11:10:27.608Z,98531.09
2019-02-26T11:12:58.554Z,98525.30
2019-02-26T11:15:29.793Z,98535.20
2019-02-26T11:17:56.635Z,98535.80
2019-02-26T11:20:27.834Z,98521.38
2019-02-26T11:22:55.372Z,98527.42
2019-02-26T11:25:26.524Z,98518.62
2019-02-26T11:27:54.135Z,98519.64
2019-02-26T11:30:28.535Z,98503.09
2019-02-26T11:32:58.633Z,98522.78
2019-02-26T11:35:25.405Z,98519.75
2019-02-26T11:37:55.441Z,98513.88
2019-02-26T11:40:28.100Z,98508.11
2019-02-26T11:42:55.756Z,98507.50
2019-02-26T11:45:24.666Z,98499.31
2019-02-26T11:47:55.177Z,98493.86
2019-02-26T11:50:28.025Z,98474.34
2019-02-26T11:52:55.041Z,98470.22
2019-02-26T11:55:26.177Z,98450.06
2019-02-26T11:57:53.993Z,98457.25
2019-02-26T12:00:37.322Z,98445.32
2019-02-26T12:03:04.986Z,98432.19
2019-02-26T12:05:35.890Z,98421.97
2019-02-26T12:08:03.723Z,98416.70
2019-02-26T12:10:33.205Z,98398.55
2019-02-26T12:13:02.487Z,98398.92
2019-02-26T12:15:33.457Z,98388.16
2019-02-26T12:18:01.264Z,98388.85
2019-02-26T12:20:30.577Z,98387.14
2019-02-26T12:22:59.127Z,98381.68
2019-02-26T12:25:27.634Z,98366.28
2019-02-26T12:27:56.195Z,98361.20
2019-02-26T12:30:26.504Z,98360.73
2019-02-26T12:32:55.261Z,98359.06
2019-02-26T12:35:23.805Z,98346.03
2019-02-26T12:37:53.899Z,98351.84
2019-02-26T12:40:25.336Z,98344.98
2019-02-26T12:42:52.804Z,98348.23
2019-02-26T12:45:22.702Z,98347.13
2019-02-26T12:47:53.093Z,98338.92
2019-02-26T12:50:26.096Z,98324.36
2019-02-26T12:52:53.837Z,98321.50
2019-02-26T12:55:28.970Z,98317.88
2019-02-26T12:57:56.340Z,98314.44
2019-02-26T13:00:24.493Z,98322.55
2019-02-26T13:02:52.991Z,98305.14
2019-02-26T13:05:23.013Z,98301.66
2019-02-26T13:07:51.814Z,98299.59
2019-02-26T13:10:27.758Z,98297.55
2019-02-26T13:13:00.026Z,98297.92
2019-02-26T13:15:26.490Z,98289.84
2019-02-26T13:17:54.993Z,98280.95
2019-02-26T13:20:29.488Z,98272.28
2019-02-26T13:23:16.470Z,98255.61
2019-02-26T13:25:28.265Z,98255.17
2019-02-26T13:27:56.776Z,98273.27
2019-02-26T13:30:25.887Z,98266.03
2019-02-26T13:32:59.792Z,98281.70
2019-02-26T13:35:24.632Z,98290.66
2019-02-26T13:37:55.429Z,98277.55
2019-02-26T13:40:24.721Z,98273.96
2019-02-26T13:45:24.660Z,98249.06
2019-02-26T13:48:00.732Z,98255.17
2019-02-26T13:50:28.843Z,98243.58
2019-02-26T13:52:57.314Z,98240.91
2019-02-26T13:55:25.822Z,98255.11
2019-02-26T13:57:54.335Z,98236.69
2019-02-26T14:00:26.223Z,98227.64
2019-02-26T14:02:53.242Z,98216.73
2019-02-26T14:05:21.747Z,98203.31
2019-02-26T14:07:50.278Z,98207.56
2019-02-26T14:10:20.939Z,98210.41
2019-02-26T14:12:49.504Z,98200.20
2019-02-26T14:15:23.762Z,98195.34
2019-02-26T14:17:52.569Z,98198.62
2019-02-26T14:20:21.553Z,98186.25
2019-02-26T14:22:50.066Z,98187.95
2019-02-26T14:25:18.664Z,98188.58
2019-02-26T14:27:47.190Z,98176.30
2019-02-26T14:30:21.078Z,98173.39
2019-02-26T14:32:49.616Z,98165.59
2019-02-26T14:35:18.121Z,98151.72
2019-02-26T14:37:46.698Z,98151.66
2019-02-26T14:40:18.662Z,98145.91
2019-02-26T14:42:47.167Z,98141.30
2019-02-26T14:45:24.069Z,98126.78
2019-02-26T14:47:52.579Z,98128.43
2019-02-26T14:50:22.232Z,98124.16
2019-02-26T14:52:50.740Z,98116.31
2019-02-26T14:55:19.247Z,98115.47
2019-02-26T14:57:47.780Z,98100.83
2019-02-26T15:00:29.839Z,98088.87
2019-02-26T15:02:58.465Z,98088.58
2019-02-26T15:05:26.967Z,98086.43
2019-02-26T15:07:55.466Z,98092.30
2019-02-26T15:10:24.005Z,98081.95
2019-02-26T15:12:52.591Z,98078.51
2019-02-26T15:15:21.171Z,98077.55
2019-02-26T15:17:49.697Z,98082.67
2019-02-26T15:20:20.272Z,98075.97
2019-02-26T15:22:48.849Z,98069.68
2019-02-26T15:25:24.917Z,98059.72
2019-02-26T15:27:53.469Z,98059.16
2019-02-26T15:30:22.398Z,98063.34
2019-02-26T15:32:50.961Z,98071.73
2019-02-26T15:35:19.484Z,98060.17
2019-02-26T15:37:48.006Z,98057.23
2019-02-26T15:40:20.085Z,98058.63
2019-02-26T15:42:52.445Z,98058.63
2019-02-26T15:45:28.880Z,98061.66
2019-02-26T15:47:56.851Z,98077.47
2019-02-26T15:50:25.356Z,98082.38
2019-02-26T15:52:53.862Z,98078.41
2019-02-26T15:55:32.149Z,98081.56
2019-02-26T15:58:04.343Z,98094.44
2019-02-26T16:00:30.915Z,98099.77
2019-02-26T16:03:00.127Z,98094.50
2019-02-26T16:05:33.931Z,98105.16
2019-02-26T16:08:02.434Z,98114.09
2019-02-26T16:10:30.973Z,98111.36
2019-02-26T16:13:05.706Z,98125.22
2019-02-26T16:15:38.762Z,98122.94
2019-02-26T16:18:07.255Z,98119.95
2019-02-26T16:20:35.759Z,98129.02
2019-02-26T16:23:04.258Z,98134.47
2019-02-26T16:25:32.758Z,98140.11
2019-02-26T16:28:01.320Z,98132.27
2019-02-26T16:30:29.938Z,98146.75
2019-02-26T16:32:58.545Z,98144.68
2019-02-26T16:35:27.064Z,98141.95
2019-02-26T16:37:55.577Z,98154.41
2019-02-26T16:40:24.120Z,98152.61
2019-02-26T16:42:52.626Z,98163.36
2019-02-26T16:45:22.809Z,98180.20
2019-02-26T16:47:51.320Z,98176.78
2019-02-26T16:50:22.588Z,98191.66
2019-02-26T16:52:51.130Z,98181.52
2019-02-26T16:55:20.243Z,98181.24
2019-02-26T16:57:48.925Z,98190.27
2019-02-26T17:00:30.551Z,98192.45
2019-02-26T17:03:01.013Z,98194.50
2019-02-26T17:05:29.343Z,98198.09
2019-02-26T17:07:58.114Z,98206.38
2019-02-26T17:10:30.214Z,98205.72
2019-02-26T17:13:01.985Z,98205.99
2019-02-26T17:15:32.790Z,98205.25
2019-02-26T17:18:01.334Z,98207.66
2019-02-26T17:20:29.836Z,98212.89
2019-02-26T17:22:58.350Z,98216.09
2019-02-26T17:25:28.465Z,98214.41
2019-02-26T17:27:57.224Z,98224.36
2019-02-26T17:30:25.720Z,98233.55
2019-02-26T17:32:54.238Z,98239.06
2019-02-26T17:35:22.721Z,98238.42
2019-02-26T17:37:51.269Z,98245.09
2019-02-26T17:40:21.747Z,98247.94
2019-02-26T17:42:51.242Z,98262.72
2019-02-26T17:45:25.805Z,98269.61
2019-02-26T17:47:56.472Z,98271.91
2019-02-26T17:50:30.756Z,98289.77
2019-02-26T17:52:59.257Z,98284.13
2019-02-26T17:55:27.833Z,98286.17
2019-02-26T17:57:56.345Z,98289.97
2019-02-26T18:00:27.049Z,98295.27
2019-02-26T18:02:55.626Z,98297.59
2019-02-26T18:05:24.118Z,98291.29
2019-02-26T18:07:52.616Z,98289.59
2019-02-26T18:10:22.949Z,98274.67
2019-02-26T18:12:51.461Z,98270.11
2019-02-26T18:15:20.831Z,98276.14
2019-02-26T18:17:49.554Z,98275.39
2019-02-26T18:20:19.397Z,98275.03
2019-02-26T18:22:47.952Z,98283.52
2019-02-26T18:25:18.935Z,98279.42
2019-02-26T18:27:47.449Z,98280.75
2019-02-26T18:30:21.388Z,98294.60
2019-02-26T18:32:50.652Z,98295.02
2019-02-26T18:35:20.192Z,98293.56
2019-02-26T18:37:48.720Z,98299.09
2019-02-26T18:40:17.924Z,98298.17
2019-02-26T18:42:46.650Z,98298.05
2019-02-26T18:45:27.910Z,98296.35
2019-02-26T18:47:56.598Z,98302.19
2019-02-26T18:50:25.907Z,98306.48
2019-02-26T18:52:55.324Z,98298.30
2019-02-26T18:55:27.935Z,98301.50
2019-02-26T18:57:54.524Z,98300.37
2019-02-26T19:00:29.351Z,98302.53
2019-02-26T19:02:57.875Z,98305.80
2019-02-26T19:05:26.384Z,98308.03
2019-02-26T19:07:54.897Z,98307.05
2019-02-26T19:10:23.404Z,98302.05
2019-02-26T19:12:51.937Z,98298.05
2019-02-26T19:15:35.911Z,98295.62
2019-02-26T19:18:04.482Z,98295.31
2019-02-26T19:20:35.267Z,98292.43
2019-02-26T19:23:03.748Z,98299.28
2019-02-26T19:25:32.254Z,98291.26
2019-02-26T19:28:00.766Z,98285.31
2019-02-26T19:30:29.380Z,98280.36
2019-02-26T19:32:57.878Z,98287.95
2019-02-26T19:35:26.376Z,98288.55
2019-02-26T19:37:57.695Z,98293.44
2019-02-26T19:40:44.058Z,98287.89
2019-02-26T19:43:12.587Z,98294.73
2019-02-26T19:45:43.818Z,98298.84
2019-02-26T19:48:11.328Z,98304.92
2019-02-26T19:50:39.840Z,98308.78
2019-02-26T19:53:08.362Z,98309.30
2019-02-26T19:55:39.697Z,98322.45
2019-02-26T19:58:08.205Z,98312.91
2019-02-26T20:00:36.815Z,98311.58
2019-02-26T20:03:06.249Z,98315.19
2019-02-26T20:05:34.931Z,98316.77
2019-02-26T20:08:05.348Z,98320.23
2019-02-26T20:10:33.686Z,98313.55
2019-02-26T20:13:04.004Z,98326.28
2019-02-26T20:15:32.412Z,98321.48
2019-02-26T20:18:00.921Z,98322.38
2019-02-26T20:20:29.469Z,98323.36
2019-02-26T20:22:57.970Z,98312.78
2019-02-26T20:25:26.475Z,98312.83
2019-02-26T20:27:58.066Z,98303.97
2019-02-26T20:30:25.217Z,98297.88
2019-02-26T20:32:53.773Z,98305.95
2019-02-26T20:35:22.323Z,98304.51
2019-02-26T20:37:50.842Z,98313.80
2019-02-26T20:40:21.712Z,98309.11
2019-02-26T20:42:50.228Z,98307.83
2019-02-26T20:45:19.477Z,98312.52
2019-02-26T20:47:47.973Z,98317.47
2019-02-26T20:50:19.993Z,98310.94
2019-02-26T20:52:46.734Z,98303.30
2019-02-26T20:55:19.125Z,98306.55
2019-02-26T20:57:48.486Z,98308.67
2019-02-26T21:00:18.591Z,98311.30
2019-02-26T21:02:47.393Z,98309.36
2019-02-26T21:05:15.907Z,98308.67
2019-02-26T21:07:44.407Z,98310.12
2019-02-26T21:10:17.642Z,98304.63
2019-02-26T21:12:46.141Z,98301.42
2019-02-26T21:15:19.979Z,98298.84
2019-02-26T21:17:48.486Z,98295.77
2019-02-26T21:20:16.987Z,98296.76
2019-02-26T21:22:45.530Z,98302.14
2019-02-26T21:25:14.453Z,98306.73
2019-02-26T21:27:42.939Z,98305.92
2019-02-26T21:30:19.837Z,98309.47
2019-02-26T21:32:48.335Z,98300.84
2019-02-26T21:35:20.067Z,98304.80
2019-02-26T21:37:48.302Z,98310.98
2019-02-26T21:40:17.171Z,98313.27
2019-02-26T21:42:45.704Z,98308.61
2019-02-26T21:45:17.874Z,98312.22
2019-02-26T21:47:46.369Z,98313.45
2019-02-26T21:50:15.579Z,98312.65
2019-02-26T21:52:44.076Z,98318.84
2019-02-26T21:55:13.612Z,98300.84
2019-02-26T21:57:42.118Z,98299.80
2019-02-26T22:00:20.286Z,98301.99
2019-02-26T22:02:51.938Z,98296.84
2019-02-26T22:05:19.186Z,98304.81
2019-02-26T22:07:52.069Z,98300.07
2019-02-26T22:10:22.443Z,98303.98
2019-02-26T22:12:50.978Z,98298.78
2019-02-26T22:15:19.474Z,98295.41
2019-02-26T22:17:47.985Z,98305.58
2019-02-26T22:20:35.539Z,98303.71
2019-02-26T22:22:50.290Z,98307.38
2019-02-26T22:25:18.894Z,98310.42
2019-02-26T22:27:47.427Z,98317.67
2019-02-26T22:30:21.463Z,98319.89
2019-02-26T22:32:47.479Z,98317.67
2019-02-26T22:35:15.976Z,98316.38
2019-02-26T22:37:44.515Z,98311.93
2019-02-26T22:40:14.017Z,98302.77
2019-02-26T22:42:42.531Z,98295.11
2019-02-26T22:45:13.486Z,98301.25
2019-02-26T22:47:43.918Z,98291.77
2019-02-26T22:50:14.328Z,98290.48
2019-02-26T22:52:43.627Z,98300.14
2019-02-26T22:55:17.172Z,98297.47
2019-02-26T22:57:45.805Z,98308.80
2019-02-26T23:00:27.993Z,98316.42
2019-02-26T23:02:56.496Z,98310.75
2019-02-26T23:05:25.638Z,98314.50
2019-02-26T23:07:54.635Z,98312.39
2019-02-26T23:10:24.729Z,98305.09
2019-02-26T23:12:53.358Z,98308.85
2019-02-26T23:15:21.870Z,98304.11
2019-02-26T23:17:50.368Z,98306.57
2019-02-26T23:20:18.927Z,98307.02
2019-02-26T23:22:47.410Z,98309.88
2019-02-26T23:25:16.003Z,98310.38
2019-02-26T23:27:46.036Z,98309.14
2019-02-26T23:30:14.934Z,98312.16
2019-02-26T23:32:43.493Z,98318.14
2019-02-26T23:35:14.152Z,98321.05
2019-02-26T23:37:42.679Z,98312.88
2019-02-26T23:40:12.062Z,98309.61
2019-02-26T23:42:40.562Z,98310.11
2019-02-26T23:45:10.801Z,98310.52
2019-02-26T23:47:39.299Z,98307.15
2019-02-26T23:50:09.401Z,98306.46
2019-02-26T23:52:37.910Z,98307.55
2019-02-26T23:55:08.009Z,98324.30
2019-02-26T23:57:36.558Z,98323.16
